createdAt,value
2023-11-19T00:00:21.774Z,69.53
2023-11-19T00:02:49.728Z,68.95
2023-11-19T00:05:17.658Z,72.60
2023-11-19T00:07:45.616Z,61.03
2023-11-19T00:10:14.333Z,58.08
2023-11-19T00:12:45.896Z,62.37
2023-11-19T00:15:14.974Z,59.78
2023-11-19T00:17:46.525Z,50.42
2023-11-19T00:20:17.003Z,55.67
2023-11-19T00:25:16.869Z,60.53
2023-11-19T00:27:47.824Z,55.65
2023-11-19T00:30:16.025Z,42.10
2023-11-19T00:32:44.096Z,39.97
2023-11-19T00:35:11.986Z,80.35
2023-11-19T00:37:43.928Z,47.57
2023-11-19T00:40:12.674Z,43.83
2023-11-19T00:42:40.669Z,38.72
2023-11-19T00:45:16.747Z,41.40
2023-11-19T00:47:44.755Z,48.70
2023-11-19T00:50:12.899Z,52.28
2023-11-19T00:52:40.932Z,52.13
2023-11-19T00:55:09.265Z,53.33
2023-11-19T00:57:37.532Z,46.17
2023-11-19T01:00:14.266Z,56.10
2023-11-19T01:02:42.801Z,47.30
2023-11-19T01:05:10.911Z,51.10
2023-11-19T01:07:40.584Z,72.22
2023-11-19T01:10:10.021Z,51.30
2023-11-19T01:12:39.048Z,39.22
2023-11-19T01:15:07.802Z,30.85
2023-11-19T01:17:36.557Z,49.67
2023-11-19T01:20:07.536Z,54.20
2023-11-19T01:22:36.864Z,62.08
2023-11-19T01:25:06.676Z,47.60
2023-11-19T01:27:37.690Z,38.87
2023-11-19T01:30:06.997Z,52.05
2023-11-19T01:32:34.915Z,51.83
2023-11-19T01:35:02.863Z,49.03
2023-11-19T01:37:30.816Z,50.28
2023-11-19T01:39:59.644Z,49.33
2023-11-19T01:42:28.585Z,51.83
2023-11-19T01:45:02.723Z,47.50
2023-11-19T01:47:30.820Z,56.92
2023-11-19T01:49:58.707Z,44.83
2023-11-19T01:52:26.598Z,57.80
2023-11-19T01:54:55.130Z,44.75
2023-11-19T01:57:23.230Z,45.00
2023-11-19T01:59:52.188Z,40.63
2023-11-19T02:02:23.662Z,51.60
2023-11-19T02:04:54.178Z,43.58
2023-11-19T02:07:22.166Z,43.90
2023-11-19T02:09:50.098Z,49.13
2023-11-19T02:12:19.003Z,37.08
2023-11-19T02:14:46.982Z,40.75
2023-11-19T02:17:27.867Z,39.90
2023-11-19T02:19:55.868Z,45.50
2023-11-19T02:22:24.062Z,51.67
2023-11-19T02:24:53.491Z,42.03
2023-11-19T02:27:45.931Z,41.92
2023-11-19T02:30:16.906Z,33.22
2023-11-19T02:32:44.961Z,43.10
2023-11-19T02:35:12.830Z,44.20
2023-11-19T02:37:40.742Z,51.88
2023-11-19T02:40:10.714Z,44.83
2023-11-19T02:42:39.817Z,51.97
2023-11-19T02:45:08.760Z,46.30
2023-11-19T02:47:37.579Z,56.95
2023-11-19T02:50:08.247Z,50.43
2023-11-19T02:52:38.901Z,39.80
2023-11-19T02:55:11.235Z,54.22
2023-11-19T02:57:39.240Z,51.47
2023-11-19T03:00:13.700Z,50.80
2023-11-19T03:02:59.629Z,46.58
2023-11-19T03:05:27.902Z,43.42
2023-11-19T03:07:55.722Z,43.03
2023-11-19T03:10:23.602Z,41.08
2023-11-19T03:12:51.514Z,48.28
2023-11-19T03:15:19.621Z,42.50
2023-11-19T03:17:47.572Z,49.33
2023-11-19T03:20:18.279Z,53.35
2023-11-19T03:22:46.116Z,61.45
2023-11-19T03:25:14.368Z,50.77
2023-11-19T03:27:45.409Z,49.20
2023-11-19T03:30:15.508Z,43.67
2023-11-19T03:32:43.375Z,49.23
2023-11-19T03:35:13.118Z,55.58
2023-11-19T03:37:40.994Z,47.75
2023-11-19T03:40:09.271Z,41.93
2023-11-19T03:42:37.110Z,43.05
2023-11-19T03:45:05.304Z,41.25
2023-11-19T03:47:33.248Z,42.03
2023-11-19T03:50:01.071Z,39.97
2023-11-19T03:52:28.888Z,44.53
2023-11-19T03:54:58.542Z,42.80
2023-11-19T03:57:26.508Z,43.43
2023-11-19T03:59:54.301Z,41.90
2023-11-19T04:02:22.138Z,39.47
2023-11-19T04:04:50.010Z,47.43
2023-11-19T04:07:17.858Z,38.28
2023-11-19T04:09:48.169Z,49.05
2023-11-19T04:12:15.971Z,35.38
2023-11-19T04:14:43.943Z,39.23
2023-11-19T04:17:11.802Z,47.03
2023-11-19T04:19:42.695Z,55.30
2023-11-19T04:22:10.699Z,53.63
2023-11-19T04:24:39.481Z,52.63
2023-11-19T04:27:07.711Z,38.40
2023-11-19T04:29:35.802Z,51.07
2023-11-19T04:32:03.709Z,50.28
2023-11-19T04:34:31.587Z,47.03
2023-11-19T04:37:13.278Z,42.03
2023-11-19T04:39:41.954Z,31.50
2023-11-19T04:42:09.815Z,45.95
2023-11-19T04:44:37.734Z,45.10
2023-11-19T04:47:05.802Z,46.57
2023-11-19T04:49:35.403Z,37.78
2023-11-19T04:52:05.920Z,40.20
2023-11-19T04:54:33.755Z,42.67
2023-11-19T04:57:01.695Z,43.05
2023-11-19T04:59:29.636Z,37.58
2023-11-19T05:01:57.478Z,41.33
2023-11-19T05:04:25.563Z,31.23
2023-11-19T05:06:53.688Z,40.47
2023-11-19T05:09:21.551Z,47.30
2023-11-19T05:11:52.393Z,34.23
2023-11-19T05:14:21.748Z,40.25
2023-11-19T05:16:50.847Z,35.80
2023-11-19T05:19:21.722Z,38.13
2023-11-19T05:21:53.587Z,42.97
2023-11-19T05:24:21.564Z,44.50
2023-11-19T05:26:49.418Z,30.70
2023-11-19T05:29:17.415Z,42.37
2023-11-19T05:31:45.541Z,44.63
2023-11-19T05:34:16.562Z,50.92
2023-11-19T05:36:44.830Z,44.53
2023-11-19T05:39:12.756Z,42.33
2023-11-19T05:41:40.608Z,44.15
2023-11-19T05:44:08.527Z,47.20
2023-11-19T05:46:41.696Z,40.72
2023-11-19T05:49:10.763Z,49.28
2023-11-19T05:51:41.914Z,48.67
2023-11-19T05:54:11.084Z,43.13
2023-11-19T05:56:39.191Z,45.00
2023-11-19T05:59:16.023Z,49.42
2023-11-19T06:01:44.122Z,43.27
2023-11-19T06:04:14.728Z,39.78
2023-11-19T06:06:42.603Z,39.45
2023-11-19T06:09:14.306Z,52.40
2023-11-19T06:11:42.470Z,39.15
2023-11-19T06:14:10.404Z,41.10
2023-11-19T06:16:38.524Z,43.10
2023-11-19T06:19:06.618Z,44.23
2023-11-19T06:21:35.417Z,44.30
2023-11-19T06:24:03.724Z,39.10
2023-11-19T06:26:31.544Z,48.73
2023-11-19T06:28:59.405Z,45.08
2023-11-19T06:31:27.314Z,49.97
2023-11-19T06:33:55.231Z,42.27
2023-11-19T06:36:23.212Z,42.92
2023-11-19T06:38:51.238Z,48.75
2023-11-19T06:41:19.082Z,60.42
2023-11-19T06:43:47.774Z,35.80
2023-11-19T06:46:18.820Z,39.40
2023-11-19T06:48:47.296Z,46.95
2023-11-19T06:51:15.618Z,46.00
2023-11-19T06:53:46.087Z,45.05
2023-11-19T06:56:22.850Z,56.72
2023-11-19T06:58:51.122Z,40.37
2023-11-19T07:01:19.664Z,46.55
2023-11-19T07:03:48.192Z,45.45
2023-11-19T07:06:16.237Z,38.85
2023-11-19T07:08:46.287Z,44.70
2023-11-19T07:11:17.874Z,47.17
2023-11-19T07:13:47.534Z,44.28
2023-11-19T07:16:16.415Z,42.70
2023-11-19T07:18:45.410Z,39.40
2023-11-19T07:21:13.530Z,47.20
2023-11-19T07:23:41.575Z,34.50
2023-11-19T07:26:09.907Z,42.35
2023-11-19T07:28:37.884Z,34.22
2023-11-19T07:31:05.955Z,48.97
2023-11-19T07:33:34.990Z,49.50
2023-11-19T07:36:02.935Z,34.53
2023-11-19T07:38:30.942Z,48.05
2023-11-19T07:40:58.855Z,45.90
2023-11-19T07:43:26.749Z,41.80
2023-11-19T07:45:54.632Z,45.45
2023-11-19T07:48:24.767Z,47.53
2023-11-19T07:50:52.790Z,41.28
2023-11-19T07:53:20.896Z,40.20
2023-11-19T07:55:48.727Z,39.00
2023-11-19T07:58:16.717Z,38.63
2023-11-19T08:00:44.596Z,43.22
2023-11-19T08:03:12.700Z,42.97
2023-11-19T08:05:43.725Z,39.07
2023-11-19T08:08:11.714Z,36.70
2023-11-19T08:10:39.786Z,41.25
2023-11-19T08:13:08.592Z,50.43
2023-11-19T08:15:36.453Z,41.55
2023-11-19T08:18:04.652Z,41.00
2023-11-19T08:20:32.627Z,35.55
2023-11-19T08:23:00.547Z,45.03
2023-11-19T08:25:28.813Z,38.88
2023-11-19T08:27:56.701Z,46.90
2023-11-19T08:30:24.622Z,38.47
2023-11-19T08:32:52.548Z,35.38
2023-11-19T08:35:20.925Z,29.25
2023-11-19T08:37:49.887Z,46.60
2023-11-19T08:40:18.565Z,38.00
2023-11-19T08:42:46.842Z,37.45
2023-11-19T08:45:14.810Z,58.60
2023-11-19T08:47:42.895Z,49.23
2023-11-19T08:50:11.646Z,45.30
2023-11-19T08:52:40.357Z,46.97
2023-11-19T08:55:08.535Z,39.87
2023-11-19T08:57:36.584Z,41.22
2023-11-19T09:00:08.936Z,52.03
2023-11-19T09:02:39.889Z,46.70
2023-11-19T09:05:11.140Z,48.75
2023-11-19T09:07:39.526Z,54.50
2023-11-19T09:10:08.024Z,54.35
2023-11-19T09:12:36.295Z,46.77
2023-11-19T09:15:05.502Z,45.58
2023-11-19T09:17:33.613Z,42.88
2023-11-19T09:20:01.875Z,36.40
2023-11-19T09:22:29.714Z,39.97
2023-11-19T09:24:57.580Z,34.83
2023-11-19T09:27:25.696Z,34.90
2023-11-19T09:29:58.780Z,39.90
2023-11-19T09:32:29.776Z,38.28
2023-11-19T09:34:57.677Z,39.35
2023-11-19T09:37:25.605Z,37.33
2023-11-19T09:39:54.699Z,36.65
2023-11-19T09:42:22.637Z,41.72
2023-11-19T09:44:50.585Z,51.50
2023-11-19T09:47:19.266Z,41.63
2023-11-19T09:49:47.105Z,48.88
2023-11-19T09:52:15.202Z,42.43
2023-11-19T09:54:43.674Z,51.28
2023-11-19T09:57:12.603Z,56.47
2023-11-19T09:59:40.466Z,39.50
2023-11-19T10:02:10.095Z,40.17
2023-11-19T10:04:41.461Z,38.75
2023-11-19T10:07:12.278Z,35.90
2023-11-19T10:09:40.269Z,48.47
2023-11-19T10:12:08.718Z,36.50
2023-11-19T10:14:38.524Z,41.45
2023-11-19T10:17:06.455Z,40.07
2023-11-19T10:19:34.828Z,39.50
2023-11-19T10:22:08.499Z,37.58
2023-11-19T10:24:39.954Z,45.75
2023-11-19T10:27:10.011Z,40.37
2023-11-19T10:29:39.266Z,44.20
2023-11-19T10:32:24.475Z,36.05
2023-11-19T10:34:59.332Z,31.10
2023-11-19T10:37:36.540Z,34.50
2023-11-19T10:40:06.859Z,35.22
2023-11-19T10:42:34.765Z,37.13
2023-11-19T10:45:02.802Z,34.65
2023-11-19T10:50:02.627Z,31.52
2023-11-19T10:52:30.403Z,38.73
2023-11-19T10:55:00.040Z,34.28
2023-11-19T10:57:27.980Z,31.20
2023-11-19T10:59:57.229Z,32.20
2023-11-19T11:02:26.495Z,32.38
2023-11-19T11:04:54.448Z,33.35
2023-11-19T11:07:32.783Z,36.23
2023-11-19T11:10:10.028Z,34.55
2023-11-19T11:12:43.391Z,44.25
2023-11-19T11:15:16.949Z,32.83
2023-11-19T11:17:44.947Z,34.73
2023-11-19T11:20:12.989Z,30.70
2023-11-19T11:22:59.467Z,35.85
2023-11-19T11:25:30.318Z,37.83
2023-11-19T11:28:27.840Z,35.85
2023-11-19T11:31:01.967Z,24.60
2023-11-19T11:34:04.096Z,38.17
2023-11-19T11:36:33.570Z,31.33
2023-11-19T11:39:02.042Z,34.42
2023-11-19T11:41:31.995Z,35.20
2023-11-19T11:44:03.481Z,29.93
2023-11-19T11:46:37.894Z,40.40
2023-11-19T11:49:08.444Z,36.05
2023-11-19T11:51:59.612Z,40.60
2023-11-19T11:54:29.078Z,35.33
2023-11-19T11:59:40.064Z,43.67
2023-11-19T12:02:09.424Z,30.98
2023-11-19T12:04:37.784Z,47.92
2023-11-19T12:07:07.068Z,32.03
2023-11-19T12:09:35.153Z,28.07
2023-11-19T12:12:22.079Z,33.67
2023-11-19T12:15:02.652Z,32.13
2023-11-19T12:17:36.439Z,31.97
2023-11-19T12:20:09.946Z,31.45
2023-11-19T12:22:41.184Z,30.98
2023-11-19T12:25:10.234Z,31.20
2023-11-19T12:27:38.927Z,25.67
2023-11-19T12:30:07.150Z,19.08
2023-11-19T12:32:44.795Z,24.02
2023-11-19T12:35:12.789Z,25.50
2023-11-19T12:37:42.716Z,22.23
2023-11-19T12:40:17.036Z,29.55
2023-11-19T12:42:48.120Z,25.00
2023-11-19T12:45:17.498Z,30.05
2023-11-19T12:47:45.574Z,42.45
2023-11-19T12:50:13.446Z,29.10
2023-11-19T12:52:41.275Z,26.67
2023-11-19T12:55:30.188Z,35.28
2023-11-19T12:58:01.851Z,37.65
2023-11-19T13:00:30.969Z,29.57
2023-11-19T13:02:59.207Z,39.03
2023-11-19T13:05:30.054Z,36.22
2023-11-19T13:08:07.494Z,36.07
2023-11-19T13:10:51.176Z,37.10
2023-11-19T13:13:19.052Z,27.38
2023-11-19T13:15:47.261Z,28.83
2023-11-19T13:18:18.028Z,30.65
2023-11-19T13:20:46.172Z,31.63
2023-11-19T13:23:17.157Z,33.67
2023-11-19T13:25:46.828Z,23.40
2023-11-19T13:28:15.220Z,26.70
2023-11-19T13:30:43.052Z,33.28
2023-11-19T13:33:15.360Z,44.80
2023-11-19T13:35:43.300Z,29.65
2023-11-19T13:38:14.795Z,31.33
2023-11-19T13:40:42.578Z,30.17
2023-11-19T13:43:10.586Z,23.58
2023-11-19T13:45:38.716Z,30.73
2023-11-19T13:48:06.730Z,32.15
2023-11-19T13:50:35.990Z,28.83
2023-11-19T13:53:03.983Z,39.30
2023-11-19T13:55:31.798Z,33.17
2023-11-19T13:57:59.758Z,35.03
2023-11-19T14:00:27.808Z,35.55
2023-11-19T14:02:55.808Z,30.52
2023-11-19T14:07:57.793Z,33.42
2023-11-19T14:10:25.648Z,27.45
2023-11-19T14:12:53.720Z,30.65
2023-11-19T14:15:21.635Z,25.77
2023-11-19T14:17:49.530Z,25.20
2023-11-19T14:20:18.654Z,36.22
2023-11-19T14:22:49.476Z,36.67
2023-11-19T14:25:17.291Z,30.77
2023-11-19T14:27:45.308Z,33.65
2023-11-19T14:30:15.483Z,34.53
2023-11-19T14:32:45.056Z,29.08
2023-11-19T14:35:12.896Z,42.08
2023-11-19T14:37:40.868Z,25.98
2023-11-19T14:40:12.658Z,34.60
2023-11-19T14:42:44.150Z,34.40
2023-11-19T14:45:14.219Z,43.50
2023-11-19T14:47:42.224Z,35.60
2023-11-19T14:50:10.315Z,34.10
2023-11-19T14:52:38.488Z,36.17
2023-11-19T14:55:06.780Z,38.37
2023-11-19T14:57:36.104Z,31.83
2023-11-19T15:00:10.106Z,34.90
2023-11-19T15:02:38.575Z,33.80
2023-11-19T15:05:06.684Z,35.80
2023-11-19T15:07:36.952Z,30.85
2023-11-19T15:10:05.141Z,40.63
2023-11-19T15:12:33.043Z,33.47
2023-11-19T15:15:01.006Z,40.95
2023-11-19T15:17:29.314Z,38.00
2023-11-19T15:19:57.465Z,33.43
2023-11-19T15:22:25.681Z,37.50
2023-11-19T15:24:54.091Z,40.28
2023-11-19T15:27:22.969Z,36.15
2023-11-19T15:29:50.834Z,39.93
2023-11-19T15:32:19.133Z,33.42
2023-11-19T15:34:47.019Z,42.50
2023-11-19T15:37:16.224Z,36.93
2023-11-19T15:39:45.630Z,27.60
2023-11-19T15:42:14.530Z,44.45
2023-11-19T15:44:42.458Z,41.03
2023-11-19T15:47:11.873Z,38.78
2023-11-19T15:49:41.492Z,43.90
2023-11-19T15:52:09.399Z,39.38
2023-11-19T15:54:38.226Z,47.67
2023-11-19T15:57:07.078Z,38.88
2023-11-19T15:59:35.078Z,34.97
2023-11-19T16:02:03.050Z,36.33
2023-11-19T16:04:31.056Z,40.22
2023-11-19T16:06:58.986Z,35.28
2023-11-19T16:09:28.374Z,52.27
2023-11-19T16:11:56.973Z,37.33
2023-11-19T16:14:27.738Z,40.53
2023-11-19T16:16:55.705Z,36.40
2023-11-19T16:19:24.265Z,51.00
2023-11-19T16:21:52.096Z,43.33
2023-11-19T16:24:19.958Z,34.83
2023-11-19T16:26:47.861Z,34.97
2023-11-19T16:29:15.837Z,33.85
2023-11-19T16:31:44.456Z,44.13
2023-11-19T16:34:12.402Z,34.13
2023-11-19T16:36:40.278Z,33.60
2023-11-19T16:41:44.693Z,36.58
2023-11-19T16:44:12.797Z,31.23
2023-11-19T16:46:40.816Z,34.83
2023-11-19T16:49:09.077Z,34.42
2023-11-19T16:51:36.995Z,32.93
2023-11-19T16:54:05.209Z,32.75
2023-11-19T16:56:34.601Z,50.67
2023-11-19T16:59:03.045Z,31.33
2023-11-19T17:01:31.976Z,38.78
2023-11-19T17:04:00.249Z,30.73
2023-11-19T17:06:28.454Z,31.10
2023-11-19T17:08:56.414Z,40.10
2023-11-19T17:11:24.356Z,33.65
2023-11-19T17:13:52.238Z,30.60
2023-11-19T17:16:20.143Z,29.20
2023-11-19T17:18:48.091Z,31.50
2023-11-19T17:21:15.948Z,31.80
2023-11-19T17:23:44.757Z,41.80
2023-11-19T17:26:13.678Z,30.85
2023-11-19T17:28:42.275Z,35.25
2023-11-19T17:31:15.568Z,36.22
2023-11-19T17:33:43.665Z,36.30
2023-11-19T17:36:11.535Z,33.28
2023-11-19T17:38:39.860Z,28.55
2023-11-19T17:41:08.219Z,33.17
2023-11-19T17:43:36.902Z,40.15
2023-11-19T17:46:09.540Z,25.95
2023-11-19T17:48:37.604Z,32.20
2023-11-19T17:51:08.010Z,22.58
2023-11-19T17:53:39.105Z,25.95
2023-11-19T17:56:09.826Z,29.98
2023-11-19T17:58:47.947Z,33.03
2023-11-19T18:01:18.100Z,28.23
2023-11-19T18:03:47.134Z,35.10
2023-11-19T18:06:21.338Z,27.27
2023-11-19T18:08:50.398Z,33.05
2023-11-19T18:11:23.424Z,31.67
2023-11-19T18:13:51.387Z,40.90
2023-11-19T18:16:22.342Z,29.77
2023-11-19T18:18:50.338Z,32.67
2023-11-19T18:21:19.453Z,30.00
2023-11-19T18:23:47.451Z,31.13
2023-11-19T18:26:15.378Z,22.08
2023-11-19T18:28:43.604Z,31.77
2023-11-19T18:31:11.652Z,36.93
2023-11-19T18:33:39.829Z,32.17
2023-11-19T18:36:08.257Z,27.75
2023-11-19T18:38:43.762Z,31.27
2023-11-19T18:41:14.597Z,34.15
2023-11-19T18:43:42.910Z,31.65
2023-11-19T18:46:11.006Z,34.47
2023-11-19T18:48:39.060Z,31.73
2023-11-19T18:51:07.010Z,23.90
2023-11-19T18:53:37.923Z,28.77
2023-11-19T18:56:07.902Z,29.97
2023-11-19T18:58:36.182Z,37.55
2023-11-19T19:01:04.239Z,26.73
2023-11-19T19:03:36.493Z,31.00
2023-11-19T19:06:06.042Z,33.40
2023-11-19T19:08:34.719Z,22.23
2023-11-19T19:11:05.502Z,33.42
2023-11-19T19:13:33.933Z,24.27
2023-11-19T19:16:02.127Z,35.03
2023-11-19T19:18:30.155Z,32.03
2023-11-19T19:20:58.008Z,28.60
2023-11-19T19:23:25.912Z,28.20
2023-11-19T19:25:55.471Z,28.80
2023-11-19T19:28:24.241Z,25.83
2023-11-19T19:30:53.955Z,34.08
2023-11-19T19:33:21.995Z,27.88
2023-11-19T19:35:49.962Z,34.05
2023-11-19T19:38:18.022Z,30.73
2023-11-19T19:40:45.877Z,28.45
2023-11-19T19:43:14.119Z,20.15
2023-11-19T19:45:44.029Z,30.55
2023-11-19T19:48:13.516Z,26.73
2023-11-19T19:50:41.459Z,31.20
2023-11-19T19:53:12.189Z,27.70
2023-11-19T19:55:40.743Z,25.23
2023-11-19T19:58:12.831Z,23.77
2023-11-19T20:00:40.976Z,22.13
2023-11-19T20:03:28.461Z,28.77
2023-11-19T20:05:59.632Z,36.00
2023-11-19T20:08:28.850Z,39.13
2023-11-19T20:10:56.980Z,23.90
2023-11-19T20:13:24.952Z,19.70
2023-11-19T20:15:54.030Z,22.08
2023-11-19T20:18:22.839Z,20.50
2023-11-19T20:20:50.903Z,19.77
2023-11-19T20:23:18.827Z,27.00
2023-11-19T20:25:46.945Z,27.27
2023-11-19T20:28:15.011Z,22.07
2023-11-19T20:30:42.891Z,25.55
2023-11-19T20:33:10.781Z,21.48
2023-11-19T20:35:40.203Z,20.00
2023-11-19T20:38:08.068Z,28.13
2023-11-19T20:40:35.904Z,18.45
2023-11-19T20:43:07.383Z,29.40
2023-11-19T20:45:39.026Z,19.57
2023-11-19T20:48:07.905Z,20.60
2023-11-19T20:50:35.956Z,18.92
2023-11-19T20:53:03.912Z,19.00
2023-11-19T20:55:34.024Z,17.83
2023-11-19T20:58:02.282Z,22.80
2023-11-19T21:00:30.249Z,25.27
2023-11-19T21:03:00.164Z,19.30
2023-11-19T21:05:28.076Z,20.85
2023-11-19T21:07:55.996Z,21.88
2023-11-19T21:10:23.830Z,13.87
2023-11-19T21:12:51.716Z,13.77
2023-11-19T21:15:21.075Z,18.05
2023-11-19T21:17:50.107Z,14.60
2023-11-19T21:20:18.654Z,14.05
2023-11-19T21:22:46.613Z,12.13
2023-11-19T21:25:14.508Z,23.42
2023-11-19T21:27:46.499Z,10.90
2023-11-19T21:30:14.926Z,15.02
2023-11-19T21:32:45.915Z,14.73
2023-11-19T21:35:13.829Z,14.80
2023-11-19T21:37:43.209Z,27.10
2023-11-19T21:40:11.406Z,16.52
2023-11-19T21:42:39.317Z,21.63
2023-11-19T21:45:07.406Z,14.95
2023-11-19T21:47:35.377Z,11.43
2023-11-19T21:50:03.751Z,19.13
2023-11-19T21:52:31.605Z,19.63
2023-11-19T21:54:59.464Z,19.17
2023-11-19T21:57:27.934Z,17.92
2023-11-19T21:59:57.980Z,20.73
2023-11-19T22:02:26.045Z,18.35
2023-11-19T22:04:53.915Z,17.67
2023-11-19T22:07:21.903Z,17.47
2023-11-19T22:09:49.794Z,15.02
2023-11-19T22:12:17.918Z,13.23
2023-11-19T22:14:46.712Z,17.33
2023-11-19T22:17:17.540Z,18.27
2023-11-19T22:19:47.397Z,15.80
2023-11-19T22:22:15.950Z,15.68
2023-11-19T22:24:43.828Z,14.43
2023-11-19T22:27:11.724Z,11.75
2023-11-19T22:29:40.006Z,10.95
2023-11-19T22:32:08.015Z,21.00
2023-11-19T22:34:35.908Z,8.73
2023-11-19T22:37:03.916Z,12.52
2023-11-19T22:39:31.963Z,15.38
2023-11-19T22:42:01.462Z,8.47
2023-11-19T22:44:29.809Z,8.30
2023-11-19T22:46:57.818Z,12.73
2023-11-19T22:49:25.676Z,10.37
2023-11-19T22:51:53.517Z,5.15
2023-11-19T22:54:22.341Z,14.73
2023-11-19T22:56:50.461Z,8.87
2023-11-19T22:59:18.502Z,5.93
2023-11-19T23:01:46.371Z,7.47
2023-11-19T23:04:14.342Z,4.95
2023-11-19T23:06:42.195Z,5.50
2023-11-19T23:09:11.649Z,6.47
2023-11-19T23:11:39.523Z,4.28
2023-11-19T23:14:08.295Z,8.00
2023-11-19T23:16:40.139Z,11.43
2023-11-19T23:19:10.392Z,9.13
2023-11-19T23:21:41.409Z,4.73
2023-11-19T23:24:11.326Z,9.32
2023-11-19T23:26:39.417Z,5.70
2023-11-19T23:29:13.709Z,5.45
2023-11-19T23:31:43.860Z,3.27
2023-11-19T23:34:11.617Z,3.78
2023-11-19T23:36:39.439Z,2.63
2023-11-19T23:39:07.838Z,6.03
2023-11-19T23:41:35.696Z,7.53
2023-11-19T23:44:03.794Z,2.55
2023-11-19T23:46:31.607Z,5.43
2023-11-19T23:49:00.083Z,3.33
2023-11-19T23:51:28.368Z,3.90
2023-11-19T23:53:57.124Z,3.00
2023-11-19T23:56:25.905Z,5.00
2023-11-19T23:58:53.840Z,3.72
